createdAt,value
2023-03-15T00:01:16.002Z,5.70
2023-03-15T00:06:18.315Z,5.60
2023-03-15T00:11:21.439Z,5.40
2023-03-15T00:16:28.818Z,5.40
2023-03-15T00:21:31.751Z,5.30
2023-03-15T00:26:34.164Z,5.20
2023-03-15T00:31:38.069Z,5.00
2023-03-15T00:36:43.573Z,4.80
2023-03-15T00:41:46.321Z,4.80
2023-03-15T00:46:50.199Z,4.70
2023-03-15T00:51:52.239Z,4.70
2023-03-15T00:56:54.876Z,4.60
2023-03-15T01:01:59.368Z,4.00
2023-03-15T01:07:03.110Z,3.40
2023-03-15T01:12:05.671Z,3.10
2023-03-15T01:17:09.631Z,2.90
2023-03-15T01:22:11.850Z,2.90
2023-03-15T01:27:14.549Z,2.90
2023-03-15T01:32:18.147Z,2.90
2023-03-15T01:37:20.107Z,2.90
2023-03-15T01:42:22.437Z,3.20
2023-03-15T01:47:27.923Z,3.40
2023-03-15T01:52:35.706Z,3.40
2023-03-15T01:57:40.434Z,3.50
2023-03-15T02:02:48.671Z,3.60
2023-03-15T02:07:54.727Z,3.60
2023-03-15T02:12:58.886Z,3.40
2023-03-15T02:18:02.224Z,3.40
2023-03-15T02:23:07.115Z,3.40
2023-03-15T02:28:13.490Z,3.50
2023-03-15T02:33:20.963Z,3.50
2023-03-15T02:38:23.809Z,3.60
2023-03-15T02:43:30.768Z,3.60
2023-03-15T02:48:35.075Z,3.50
2023-03-15T02:53:37.323Z,3.50
2023-03-15T02:58:41.042Z,3.40
2023-03-15T03:03:44.338Z,3.60
2023-03-15T03:08:47.930Z,3.50
2023-03-15T03:13:51.499Z,3.40
2023-03-15T03:18:53.717Z,3.10
2023-03-15T03:23:56.236Z,2.50
2023-03-15T03:29:00.599Z,2.30
2023-03-15T03:34:02.740Z,2.20
2023-03-15T03:39:05.371Z,2.00
2023-03-15T03:44:09.059Z,2.00
2023-03-15T03:49:11.309Z,2.10
2023-03-15T03:54:15.324Z,2.10
2023-03-15T03:59:20.230Z,2.00
2023-03-15T04:04:22.419Z,2.10
2023-03-15T04:09:25.212Z,2.20
2023-03-15T04:14:28.838Z,2.20
2023-03-15T04:19:31.372Z,2.20
2023-03-15T04:24:33.331Z,2.10
2023-03-15T04:29:37.488Z,2.00
2023-03-15T04:34:39.917Z,1.80
2023-03-15T04:39:42.913Z,1.80
2023-03-15T04:44:47.102Z,1.70
2023-03-15T04:49:49.436Z,1.70
2023-03-15T04:54:51.994Z,1.50
2023-03-15T04:59:55.226Z,1.50
2023-03-15T05:04:57.324Z,1.40
2023-03-15T05:09:59.485Z,1.30
2023-03-15T05:15:03.307Z,1.10
2023-03-15T05:20:10.856Z,1.00
2023-03-15T05:25:13.026Z,0.80
2023-03-15T05:30:17.510Z,0.70
2023-03-15T05:35:20.032Z,0.70
2023-03-15T05:40:22.336Z,0.80
2023-03-15T05:45:26.096Z,0.90
2023-03-15T05:50:28.936Z,1.00
2023-03-15T05:55:31.236Z,1.00
2023-03-15T06:00:35.221Z,0.80
2023-03-15T06:05:37.596Z,0.80
2023-03-15T06:10:40.166Z,0.70
2023-03-15T06:15:43.989Z,0.60
2023-03-15T06:20:46.178Z,0.60
2023-03-15T06:25:48.181Z,0.80
2023-03-15T06:30:51.413Z,0.70
2023-03-15T06:35:53.460Z,0.60
2023-03-15T06:40:58.573Z,0.70
2023-03-15T06:46:02.069Z,0.60
2023-03-15T06:51:06.210Z,1.00
2023-03-15T06:56:08.687Z,1.40
2023-03-15T07:01:15.319Z,1.10
2023-03-15T07:06:17.561Z,1.20
2023-03-15T07:11:19.793Z,1.60
2023-03-15T07:16:23.750Z,2.10
2023-03-15T07:21:26.137Z,2.70
2023-03-15T07:26:28.326Z,3.40
2023-03-15T07:31:32.203Z,3.90
2023-03-15T07:36:34.636Z,4.30
2023-03-15T07:41:36.954Z,4.70
2023-03-15T07:46:40.410Z,4.40
2023-03-15T07:51:43.762Z,4.70
2023-03-15T07:56:45.651Z,5.20
2023-03-15T08:01:49.628Z,5.70
2023-03-15T08:06:52.183Z,6.20
2023-03-15T08:11:54.585Z,6.90
2023-03-15T08:16:58.065Z,7.60
2023-03-15T08:22:00.394Z,7.70
2023-03-15T08:27:02.414Z,8.00
2023-03-15T08:32:07.028Z,8.60
2023-03-15T08:37:09.155Z,9.00
2023-03-15T08:42:11.844Z,8.90
2023-03-15T08:47:15.561Z,9.90
2023-03-15T08:52:18.338Z,10.80
2023-03-15T08:57:20.612Z,11.60
2023-03-15T09:02:24.698Z,12.10
2023-03-15T09:07:27.093Z,12.50
2023-03-15T09:12:29.281Z,12.70
2023-03-15T09:17:33.055Z,12.60
2023-03-15T09:22:39.558Z,13.10
2023-03-15T09:27:42.128Z,14.00
2023-03-15T09:32:46.406Z,14.50
2023-03-15T09:37:49.984Z,15.10
2023-03-15T09:43:06.554Z,15.40
2023-03-15T09:48:16.685Z,14.10
2023-03-15T09:53:25.244Z,14.70
2023-03-15T09:58:32.840Z,14.80
2023-03-15T10:03:44.273Z,14.50
2023-03-15T10:08:47.682Z,12.40
2023-03-15T10:14:09.961Z,10.70
2023-03-15T10:19:24.129Z,13.40
2023-03-15T10:24:35.886Z,14.00
2023-03-15T10:29:38.712Z,14.00
2023-03-15T10:34:42.221Z,13.60
2023-03-15T10:39:48.238Z,12.70
2023-03-15T10:44:50.668Z,14.00
2023-03-15T10:49:58.648Z,10.40
2023-03-15T10:55:04.515Z,11.80
2023-03-15T11:00:24.132Z,12.60
2023-03-15T11:05:32.442Z,11.90
2023-03-15T11:10:36.679Z,16.20
2023-03-15T11:15:39.217Z,15.10
2023-03-15T11:20:42.951Z,13.50
2023-03-15T11:25:45.112Z,12.40
2023-03-15T11:30:48.899Z,13.90
2023-03-15T11:35:54.225Z,13.90
2023-03-15T11:41:00.190Z,16.10
2023-03-15T11:46:06.270Z,15.10
2023-03-15T11:51:11.755Z,16.90
2023-03-15T11:56:26.812Z,16.90
2023-03-15T12:01:29.310Z,18.00
2023-03-15T12:06:40.296Z,13.50
2023-03-15T12:11:43.888Z,12.30
2023-03-15T12:16:47.803Z,10.80
2023-03-15T12:21:54.722Z,12.40
2023-03-15T12:27:05.118Z,12.90
2023-03-15T12:32:13.775Z,12.10
2023-03-15T12:37:21.546Z,13.30
2023-03-15T12:43:01.799Z,14.80
2023-03-15T12:48:22.769Z,15.00
2023-03-15T12:53:37.370Z,16.00
2023-03-15T12:58:42.761Z,13.30
2023-03-15T13:03:45.115Z,13.00
2023-03-15T13:08:58.098Z,13.70
2023-03-15T13:14:28.174Z,11.90
2023-03-15T13:19:37.322Z,11.40
2023-03-15T13:24:52.682Z,11.60
2023-03-15T13:29:55.876Z,10.80
2023-03-15T13:34:58.957Z,9.70
2023-03-15T13:40:05.604Z,9.90
2023-03-15T13:45:15.704Z,9.90
2023-03-15T13:50:20.042Z,11.00
2023-03-15T13:55:25.734Z,10.90
2023-03-15T14:00:33.985Z,13.40
2023-03-15T14:05:45.762Z,12.50
2023-03-15T14:11:00.513Z,10.30
2023-03-15T14:16:04.663Z,10.60
2023-03-15T14:21:12.204Z,10.80
2023-03-15T14:26:21.779Z,10.50
2023-03-15T14:31:26.840Z,12.30
2023-03-15T14:36:35.611Z,12.30
2023-03-15T14:41:39.238Z,11.40
2023-03-15T14:46:42.037Z,10.70
2023-03-15T14:51:44.941Z,10.50
2023-03-15T14:56:48.820Z,10.10
2023-03-15T15:01:55.280Z,9.60
2023-03-15T15:06:58.089Z,10.10
2023-03-15T15:12:01.804Z,10.00
2023-03-15T15:17:04.511Z,9.80
2023-03-15T15:22:07.225Z,9.90
2023-03-15T15:27:15.039Z,9.40
2023-03-15T15:32:17.482Z,9.20
2023-03-15T15:37:20.134Z,9.10
2023-03-15T15:42:24.929Z,8.80
2023-03-15T15:47:28.764Z,8.80
2023-03-15T15:52:31.452Z,9.30
2023-03-15T15:57:35.540Z,9.70
2023-03-15T16:02:38.909Z,9.80
2023-03-15T16:07:42.197Z,9.60
2023-03-15T16:12:45.972Z,9.20
2023-03-15T16:17:49.990Z,8.90
2023-03-15T16:22:57.822Z,9.00
2023-03-15T16:28:04.489Z,9.30
2023-03-15T16:33:16.985Z,9.10
2023-03-15T16:38:27.641Z,8.70
2023-03-15T16:43:33.838Z,8.70
2023-03-15T16:48:38.123Z,8.60
2023-03-15T16:53:45.277Z,8.50
2023-03-15T16:58:55.330Z,8.40
2023-03-15T17:03:59.487Z,8.30
2023-03-15T17:09:10.069Z,8.20
2023-03-15T17:14:18.600Z,8.10
2023-03-15T17:19:22.143Z,8.00
2023-03-15T17:24:27.009Z,7.90
2023-03-15T17:29:32.396Z,7.80
2023-03-15T17:34:36.650Z,7.80
2023-03-15T17:39:41.077Z,7.70
2023-03-15T17:44:48.709Z,7.60
2023-03-15T17:49:53.447Z,7.50
2023-03-15T17:54:57.263Z,7.40
2023-03-15T18:00:02.910Z,7.30
2023-03-15T18:05:06.481Z,7.10
2023-03-15T18:10:12.287Z,6.90
2023-03-15T18:15:19.809Z,6.70
2023-03-15T18:20:25.157Z,6.50
2023-03-15T18:25:30.931Z,6.40
2023-03-15T18:30:37.936Z,6.20
2023-03-15T18:35:47.661Z,6.10
2023-03-15T18:40:52.609Z,6.10
2023-03-15T18:46:03.039Z,6.10
2023-03-15T18:51:07.771Z,6.10
2023-03-15T18:56:17.652Z,6.10
2023-03-15T19:01:30.997Z,6.20
2023-03-15T19:06:35.908Z,6.30
2023-03-15T19:11:42.593Z,6.20
2023-03-15T19:16:48.740Z,6.10
2023-03-15T19:21:52.738Z,6.00
2023-03-15T19:26:56.896Z,6.00
2023-03-15T19:32:03.721Z,5.90
2023-03-15T19:37:07.784Z,5.70
2023-03-15T19:42:12.194Z,5.50
2023-03-15T19:47:20.239Z,5.20
2023-03-15T19:52:24.567Z,5.30
2023-03-15T19:57:29.620Z,5.30
2023-03-15T20:02:36.769Z,5.10
2023-03-15T20:07:43.428Z,5.20
2023-03-15T20:12:49.260Z,5.10
2023-03-15T20:17:55.154Z,4.90
2023-03-15T20:22:59.652Z,4.60
2023-03-15T20:28:05.696Z,4.40
2023-03-15T20:33:12.324Z,4.20
2023-03-15T20:38:16.555Z,4.00
2023-03-15T20:43:21.106Z,3.70
2023-03-15T20:48:27.393Z,3.70
2023-03-15T20:53:32.178Z,3.80
2023-03-15T20:58:36.184Z,3.90
2023-03-15T21:03:44.280Z,3.90
2023-03-15T21:08:48.678Z,4.00
2023-03-15T21:13:53.512Z,4.10
2023-03-15T21:18:59.055Z,4.20
2023-03-15T21:24:02.639Z,4.20
2023-03-15T21:29:07.578Z,4.10
2023-03-15T21:34:11.667Z,4.10
2023-03-15T21:39:16.058Z,3.90
2023-03-15T21:44:19.612Z,3.80
2023-03-15T21:49:24.275Z,3.60
2023-03-15T21:54:26.926Z,3.60
2023-03-15T21:59:29.394Z,3.50
2023-03-15T22:04:34.608Z,3.60
2023-03-15T22:09:38.241Z,3.70
2023-03-15T22:14:41.297Z,3.90
2023-03-15T22:19:45.464Z,3.80
2023-03-15T22:24:47.730Z,3.80
2023-03-15T22:29:50.278Z,3.80
2023-03-15T22:34:53.897Z,3.50
2023-03-15T22:39:56.182Z,3.20
2023-03-15T22:44:58.807Z,3.00
2023-03-15T22:50:02.577Z,3.10
2023-03-15T22:55:05.121Z,2.80
2023-03-15T23:00:13.872Z,2.50
2023-03-15T23:05:18.136Z,2.40
2023-03-15T23:10:20.438Z,2.30
2023-03-15T23:15:23.319Z,2.20
2023-03-15T23:20:27.496Z,2.00
2023-03-15T23:25:30.533Z,1.80
2023-03-15T23:30:35.480Z,1.80
2023-03-15T23:35:39.745Z,1.80
2023-03-15T23:40:41.743Z,1.90
2023-03-15T23:45:43.644Z,1.80
2023-03-15T23:50:47.570Z,1.90
2023-03-15T23:55:49.758Z,1.90
